Time;durP1;ratioP1;P1;durP2;ratioP2;P2;SDS_P1;SDS_P2;PMS_P1;PMS_P2;Temp;Humidity;BMP_temperature;BMP_pressure;BME280_temperature;BME280_humidity;BME280_pressure;Samples;Min_cycle;Max_cycle;Signal;HPM_P1;HPM_P2
2024/01/27 00:01:46;;;;;;;7.55;4.07;;;13.60;52.50;;;;;;7424127;19;19921;-82
2024/01/27 00:04:15;;;;;;;;;;;13.60;52.70;;;;;;7383852;19;19935;-81
2024/01/27 00:06:41;;;;;;;6.78;3.65;;;13.60;52.30;;;;;;7427222;19;19942;-81
2024/01/27 00:09:15;;;;;;;7.22;3.75;;;13.60;53.30;;;;;;7419738;19;19929;-80
2024/01/27 00:11:40;;;;;;;7.80;3.40;;;13.70;52.30;;;;;;7425220;19;19915;-81
2024/01/27 00:14:09;;;;;;;7.03;3.28;;;13.70;52.20;;;;;;7378285;19;19926;-79
2024/01/27 00:16:35;;;;;;;6.53;3.35;;;13.60;52.40;;;;;;7402477;19;19940;-82
2024/01/27 00:19:01;;;;;;;7.55;3.10;;;13.50;53.00;;;;;;7422216;19;19906;-82
2024/01/27 00:21:26;;;;;;;8.95;4.20;;;13.40;53.80;;;;;;7390813;19;19922;-81
2024/01/27 00:23:53;;;;;;;6.97;3.92;;;13.40;54.20;;;;;;7424458;19;19911;-82
2024/01/27 00:26:19;;;;;;;7.72;3.25;;;13.40;54.80;;;;;;7396373;19;19982;-81
2024/01/27 00:28:45;;;;;;;7.80;3.53;;;13.50;54.40;;;;;;7417541;19;19915;-82
2024/01/27 00:31:11;;;;;;;6.72;2.80;;;13.50;53.60;;;;;;7426586;19;19914;-82
2024/01/27 00:33:36;;;;;;;5.80;3.13;;;13.50;53.50;;;;;;7420907;19;19923;-82
2024/01/27 00:36:05;;;;;;;7.38;3.15;;;13.50;53.70;;;;;;7421558;19;19958;-82
2024/01/27 00:38:35;;;;;;;7.45;3.15;;;13.60;52.80;;;;;;7423561;19;19917;-82
2024/01/27 00:41:00;;;;;;;6.10;2.95;;;13.60;50.80;;;;;;7426931;19;19926;-81
2024/01/27 00:43:26;;;;;;;7.30;3.42;;;13.60;51.80;;;;;;7399899;19;20248;-82
2024/01/27 00:45:53;;;;;;;6.15;2.80;;;13.50;52.10;;;;;;7421429;19;20339;-81
2024/01/27 00:48:19;;;;;;;6.43;3.28;;;13.60;51.40;;;;;;7425672;19;19918;-82
2024/01/27 00:50:48;;;;;;;8.10;3.03;;;13.60;49.50;;;;;;7426791;19;19910;-81
2024/01/27 00:53:16;;;;;;;6.90;2.97;;;13.80;48.90;;;;;;7423006;19;19942;-83
2024/01/27 00:55:42;;;;;;;6.95;3.03;;;13.90;48.30;;;;;;7425264;19;19921;-83
2024/01/27 00:58:12;;;;;;;5.93;3.00;;;13.90;48.60;;;;;;7419279;19;19907;-82
2024/01/27 01:00:40;;;;;;;4.85;2.40;;;13.90;48.00;;;;;;7423762;19;19914;-82
2024/01/27 01:03:06;;;;;;;4.80;2.17;;;13.90;47.10;;;;;;7357369;19;19933;-82
2024/01/27 01:05:31;;;;;;;6.25;2.50;;;14.10;44.70;;;;;;7428599;19;19926;-82
2024/01/27 01:07:58;;;;;;;6.78;2.47;;;14.10;43.80;;;;;;7424521;19;20545;-82
2024/01/27 01:10:24;;;;;;;5.40;2.30;;;14.10;44.00;;;;;;7429004;19;19922;-83
2024/01/27 01:12:50;;;;;;;6.10;2.40;;;14.10;43.60;;;;;;7422144;19;19927;-81
2024/01/27 01:15:16;;;;;;;5.07;2.33;;;14.10;43.80;;;;;;7421667;19;19942;-83
2024/01/27 01:17:42;;;;;;;4.70;2.20;;;14.30;43.00;;;;;;7428104;19;19918;-82
2024/01/27 01:20:09;;;;;;;5.45;2.40;;;14.30;42.20;;;;;;7425579;19;19914;-84
2024/01/27 01:22:35;;;;;;;6.03;2.53;;;14.30;42.00;;;;;;7428399;19;19915;-82
2024/01/27 01:25:01;;;;;;;5.68;2.17;;;14.20;41.90;;;;;;7425331;19;19923;-82
2024/01/27 01:27:26;;;;;;;5.93;2.63;;;14.20;41.50;;;;;;7424999;19;19937;-81
2024/01/27 01:29:52;;;;;;;6.80;2.75;;;14.20;41.90;;;;;;7427650;19;19925;-82
2024/01/27 01:32:18;;;;;;;6.45;2.78;;;14.20;41.90;;;;;;7422147;19;19925;-81
2024/01/27 01:34:46;;;;;;;6.47;2.50;;;14.20;41.80;;;;;;7428116;19;19914;-83
2024/01/27 01:37:13;;;;;;;7.22;2.63;;;14.20;41.60;;;;;;7428375;19;19926;-82
2024/01/27 01:39:39;;;;;;;5.18;2.70;;;14.10;42.00;;;;;;7426819;19;19915;-81
2024/01/27 01:42:05;;;;;;;5.80;2.60;;;14.10;42.20;;;;;;7425175;19;19926;-81
2024/01/27 01:44:34;;;;;;;7.13;3.08;;;14.10;42.50;;;;;;7426795;19;19950;-81
2024/01/27 01:47:01;;;;;;;6.20;2.80;;;14.00;42.80;;;;;;7426523;19;19927;-81
2024/01/27 01:49:27;;;;;;;8.95;3.28;;;14.10;42.50;;;;;;7424269;19;19918;-81
2024/01/27 01:51:53;;;;;;;6.88;2.97;;;14.00;42.90;;;;;;7404439;19;19915;-81
2024/01/27 01:54:22;;;;;;;5.57;2.63;;;13.90;43.30;;;;;;7422659;19;19926;-81
2024/01/27 01:56:48;;;;;;;11.15;3.40;;;13.90;43.60;;;;;;7426274;19;19975;-82
2024/01/27 01:59:15;;;;;;;7.38;2.33;;;13.90;43.30;;;;;;7418681;19;19934;-81
2024/01/27 02:01:41;;;;;;;;;;;13.90;42.50;;;;;;7424469;19;19929;-82
2024/01/27 02:04:07;;;;;;;6.50;2.67;;;13.90;41.50;;;;;;7422696;19;19919;-81
2024/01/27 02:06:35;;;;;;;5.72;2.33;;;13.80;41.50;;;;;;7433929;19;19939;-81
2024/01/27 02:09:01;;;;;;;5.47;2.33;;;13.90;41.10;;;;;;7433301;19;19922;-82
2024/01/27 02:11:27;;;;;;;5.65;2.53;;;13.90;41.20;;;;;;7430229;19;19925;-83
2024/01/27 02:13:53;;;;;;;6.22;2.53;;;13.90;40.00;;;;;;7431895;19;19923;-82
2024/01/27 02:16:19;;;;;;;5.93;2.53;;;13.90;40.20;;;;;;7407598;19;19907;-83
2024/01/27 02:18:45;;;;;;;4.90;2.30;;;13.90;40.40;;;;;;7403497;19;19921;-82
2024/01/27 02:21:11;;;;;;;7.35;2.42;;;13.90;40.20;;;;;;7426411;19;19926;-83
2024/01/27 02:23:38;;;;;;;6.20;3.00;;;13.90;40.20;;;;;;7431509;19;19922;-82
2024/01/27 02:26:03;;;;;;;6.32;2.75;;;14.00;39.90;;;;;;7426098;19;19931;-83
2024/01/27 02:28:32;;;;;;;7.13;2.45;;;14.00;40.00;;;;;;7427178;19;19922;-83
2024/01/27 02:30:59;;;;;;;7.93;3.38;;;13.90;40.30;;;;;;7428383;19;19929;-83
2024/01/27 02:33:25;;;;;;;7.65;2.88;;;13.80;40.60;;;;;;7407034;19;19934;-83
2024/01/27 02:35:51;;;;;;;7.10;2.75;;;13.70;41.40;;;;;;7431511;19;19914;-84
2024/01/27 02:38:17;;;;;;;6.57;2.55;;;13.70;41.50;;;;;;7427245;19;20451;-82
2024/01/27 02:40:43;;;;;;;5.85;2.63;;;13.60;41.30;;;;;;7428911;19;19950;-83
2024/01/27 02:43:09;;;;;;;7.13;2.88;;;13.60;40.90;;;;;;7427239;19;19911;-82
2024/01/27 02:45:34;;;;;;;6.35;3.30;;;13.60;41.30;;;;;;7429451;19;19946;-82
2024/01/27 02:48:00;;;;;;;6.43;2.50;;;13.60;41.30;;;;;;7427551;19;19914;-81
2024/01/27 02:50:26;;;;;;;9.20;3.38;;;13.50;41.20;;;;;;7426487;19;19910;-82
2024/01/27 02:52:53;;;;;;;7.80;2.92;;;13.70;40.20;;;;;;7423906;19;20692;-82
2024/01/27 02:55:19;;;;;;;7.10;3.15;;;13.70;39.40;;;;;;7428542;19;19911;-83
2024/01/27 02:57:45;;;;;;;8.02;3.25;;;13.70;39.20;;;;;;7428904;19;20532;-81
2024/01/27 03:00:11;;;;;;;6.97;2.92;;;13.60;39.50;;;;;;7408138;19;19919;-82
2024/01/27 03:02:37;;;;;;;8.30;3.40;;;13.60;39.30;;;;;;7428822;19;19914;-83
2024/01/27 03:05:04;;;;;;;6.75;3.20;;;13.70;39.30;;;;;;7428917;19;19918;-81
2024/01/27 03:07:30;;;;;;;;;;;13.80;39.00;;;;;;7431505;19;20014;-81
2024/01/27 03:09:56;;;;;;;9.88;3.75;;;13.70;38.80;;;;;;7431908;19;19923;-81
2024/01/27 03:12:22;;;;;;;9.68;3.45;;;13.70;39.30;;;;;;7430068;19;21938;-81
2024/01/27 03:14:49;;;;;;;7.60;3.35;;;13.60;39.60;;;;;;7427064;19;19915;-82
2024/01/27 03:17:16;;;;;;;5.70;2.78;;;13.60;40.50;;;;;;7427781;19;19918;-85
2024/01/27 03:19:42;;;;;;;7.50;3.22;;;13.60;41.10;;;;;;7429834;19;19930;-83
2024/01/27 03:22:08;;;;;;;9.02;3.67;;;13.50;40.80;;;;;;7424999;19;19951;-83
2024/01/27 03:24:34;;;;;;;10.63;3.35;;;13.50;41.80;;;;;;7429534;19;19923;-82
2024/01/27 03:27:00;;;;;;;7.65;3.55;;;13.40;41.90;;;;;;7428949;19;19945;-80
2024/01/27 03:29:26;;;;;;;8.63;3.35;;;13.30;42.80;;;;;;7426527;19;19930;-82
2024/01/27 03:31:52;;;;;;;7.32;3.25;;;13.30;43.20;;;;;;7426922;19;20144;-82
2024/01/27 03:34:19;;;;;;;8.88;3.35;;;13.20;44.10;;;;;;7422576;19;19918;-81
2024/01/27 03:36:48;;;;;;;7.90;3.17;;;13.20;44.10;;;;;;7427860;19;19922;-82
2024/01/27 03:39:15;;;;;;;8.20;3.03;;;13.20;43.90;;;;;;7426436;19;19915;-82
2024/01/27 03:41:41;;;;;;;8.02;3.47;;;13.20;43.60;;;;;;7423556;19;19922;-83
2024/01/27 03:44:07;;;;;;;7.50;3.40;;;13.30;42.80;;;;;;7421334;19;19931;-83
2024/01/27 03:46:35;;;;;;;6.47;3.50;;;13.30;42.30;;;;;;7407105;19;19911;-82
2024/01/27 03:49:01;;;;;;;8.30;3.40;;;13.30;42.60;;;;;;7426096;19;19911;-82
2024/01/27 03:51:27;;;;;;;8.07;3.38;;;13.20;43.40;;;;;;7430078;19;19925;-81
2024/01/27 03:53:55;;;;;;;8.38;3.40;;;13.20;43.50;;;;;;7427860;19;19915;-81
2024/01/27 03:56:21;;;;;;;8.50;3.60;;;13.10;44.00;;;;;;7430555;19;19942;-80
2024/01/27 03:58:46;;;;;;;8.10;3.15;;;13.00;44.60;;;;;;7429449;19;19930;-80
2024/01/27 04:01:12;;;;;;;10.88;3.60;;;13.00;44.80;;;;;;7429008;19;19934;-83
2024/01/27 04:03:38;;;;;;;7.15;3.50;;;12.90;45.20;;;;;;7428152;19;19914;-81
2024/01/27 04:06:04;;;;;;;8.02;3.40;;;12.80;45.80;;;;;;7429773;19;19915;-81
2024/01/27 04:08:33;;;;;;;7.57;3.10;;;12.70;46.70;;;;;;7429187;19;19930;-80
2024/01/27 04:10:58;;;;;;;8.98;3.50;;;12.70;46.70;;;;;;7429499;19;19922;-80
2024/01/27 04:13:24;;;;;;;8.43;3.35;;;12.70;47.60;;;;;;7428813;19;19911;-81
2024/01/27 04:15:51;;;;;;;8.98;3.10;;;12.60;48.00;;;;;;7428152;19;19919;-82
2024/01/27 04:18:19;;;;;;;8.82;3.38;;;12.60;48.10;;;;;;7426761;19;19918;-83
2024/01/27 04:20:45;;;;;;;9.63;3.47;;;12.60;48.70;;;;;;7407420;19;19933;-82
2024/01/27 04:23:11;;;;;;;9.25;3.30;;;12.60;48.40;;;;;;7428092;19;19949;-82
2024/01/27 04:25:42;;;;;;;9.30;2.78;;;12.50;49.00;;;;;;7428957;19;19915;-82
2024/01/27 04:28:10;;;;;;;8.25;3.20;;;12.50;48.80;;;;;;7420585;19;19956;-81
2024/01/27 04:30:36;;;;;;;10.75;3.60;;;12.60;48.70;;;;;;7428445;19;19917;-82
2024/01/27 04:33:07;;;;;;;9.32;3.03;;;12.60;47.90;;;;;;7428925;19;19918;-81
2024/01/27 04:35:33;;;;;;;9.23;3.25;;;12.60;47.70;;;;;;7428355;19;20230;-81
2024/01/27 04:37:59;;;;;;;12.13;3.33;;;12.70;48.20;;;;;;7426408;19;19930;-85
2024/01/27 04:40:26;;;;;;;8.73;3.33;;;12.70;47.10;;;;;;7427755;19;19936;-82
2024/01/27 04:42:52;;;;;;;12.30;3.60;;;12.80;47.20;;;;;;7427677;19;19918;-82
2024/01/27 04:45:18;;;;;;;11.05;3.65;;;12.70;47.20;;;;;;7427026;19;19923;-81
2024/01/27 04:47:44;;;;;;;13.40;3.60;;;12.60;47.10;;;;;;7426552;19;19930;-81
2024/01/27 04:50:09;;;;;;;8.85;2.97;;;12.70;46.90;;;;;;7424816;19;19925;-81
2024/01/27 04:52:43;;;;;;;8.82;3.10;;;12.60;47.20;;;;;;7423734;19;19926;-85
2024/01/27 04:55:10;;;;;;;9.93;3.10;;;12.60;47.50;;;;;;7423365;19;19915;-81
2024/01/27 04:57:38;;;;;;;10.00;3.83;;;12.70;48.10;;;;;;7425612;19;19911;-80
2024/01/27 05:00:11;;;;;;;7.88;3.25;;;12.70;47.40;;;;;;7423986;19;19911;-80
2024/01/27 05:02:41;;;;;;;9.95;3.15;;;12.60;46.90;;;;;;7402419;19;19919;-82
2024/01/27 05:05:07;;;;;;;9.10;3.78;;;12.60;47.60;;;;;;7421402;19;19914;-82
2024/01/27 05:07:34;;;;;;;7.93;3.22;;;12.60;47.40;;;;;;7425234;19;19930;-82
2024/01/27 05:10:00;;;;;;;9.75;3.50;;;12.70;47.00;;;;;;7423503;19;19922;-82
2024/01/27 05:12:26;;;;;;;10.07;3.53;;;12.70;47.10;;;;;;7426742;19;19929;-83
2024/01/27 05:14:56;;;;;;;8.68;3.33;;;12.60;46.60;;;;;;7425854;19;19978;-80
2024/01/27 05:17:21;;;;;;;8.30;3.20;;;12.60;46.30;;;;;;7424099;19;20275;-82
2024/01/27 05:19:50;;;;;;;11.05;4.15;;;12.60;46.80;;;;;;7425213;19;19918;-83
2024/01/27 05:22:16;;;;;;;8.60;3.47;;;12.70;46.90;;;;;;7422361;19;20343;-82
2024/01/27 05:24:42;;;;;;;8.65;3.15;;;12.60;46.90;;;;;;7402905;19;19903;-81
2024/01/27 05:27:08;;;;;;;7.68;3.15;;;12.60;46.90;;;;;;7424086;19;19917;-80
2024/01/27 05:29:33;;;;;;;8.55;3.65;;;12.60;46.90;;;;;;7426051;19;19915;-81
2024/01/27 05:31:59;;;;;;;10.55;3.30;;;12.50;46.90;;;;;;7427079;19;19918;-81
2024/01/27 05:34:25;;;;;;;12.00;4.32;;;12.50;47.40;;;;;;7421710;19;19918;-80
2024/01/27 05:36:51;;;;;;;10.55;3.50;;;12.50;47.40;;;;;;7424198;19;19974;-83
2024/01/27 05:39:16;;;;;;;11.68;3.90;;;12.50;47.40;;;;;;7424853;19;19944;-82
2024/01/27 05:41:42;;;;;;;8.68;3.30;;;12.50;48.10;;;;;;7425784;19;19943;-81
2024/01/27 05:45:10;;;;;;;;;;;;;;;;;;;;;
2024/01/27 05:47:36;;;;;;;8.45;3.55;;;12.50;47.10;;;;;;7398834;19;20696;-80
2024/01/27 05:50:04;;;;;;;9.57;3.50;;;12.50;47.40;;;;;;7431358;19;20019;-83
2024/01/27 05:52:30;;;;;;;7.80;3.67;;;12.50;47.70;;;;;;7428256;19;19930;-82
2024/01/27 05:54:57;;;;;;;8.40;3.22;;;12.40;47.60;;;;;;7433157;19;19926;-81
2024/01/27 05:57:23;;;;;;;8.68;3.38;;;12.50;47.50;;;;;;7429883;19;19938;-82
2024/01/27 05:59:48;;;;;;;8.63;3.40;;;12.50;47.10;;;;;;7431754;19;19922;-81
2024/01/27 06:02:14;;;;;;;9.13;2.97;;;12.60;47.20;;;;;;7429230;19;19910;-82
2024/01/27 06:04:41;;;;;;;11.70;3.78;;;12.60;46.10;;;;;;7429003;19;19922;-81
2024/01/27 06:07:07;;;;;;;9.60;3.50;;;12.60;46.00;;;;;;7427227;19;19955;-81
2024/01/27 06:09:33;;;;;;;11.15;3.55;;;12.60;46.20;;;;;;7430317;19;19913;-82
2024/01/27 06:12:00;;;;;;;8.30;3.10;;;12.60;46.00;;;;;;7426742;19;20617;-81
2024/01/27 06:14:26;;;;;;;10.73;3.35;;;12.60;45.90;;;;;;7423600;19;19939;-82
2024/01/27 06:16:52;;;;;;;10.63;3.67;;;12.50;46.40;;;;;;7425846;19;19922;-83
2024/01/27 06:19:18;;;;;;;8.55;3.30;;;12.40;47.60;;;;;;7405281;19;19922;-82
2024/01/27 06:21:44;;;;;;;8.52;3.50;;;12.30;48.40;;;;;;7427163;19;19950;-82
2024/01/27 06:24:10;;;;;;;8.98;3.38;;;12.30;49.10;;;;;;7402044;19;20379;-85
2024/01/27 06:26:35;;;;;;;10.23;3.92;;;12.40;49.00;;;;;;7429178;19;19914;-83
2024/01/27 06:29:02;;;;;;;10.38;3.35;;;12.50;47.40;;;;;;7430551;19;19917;-81
2024/01/27 06:31:29;;;;;;;9.30;3.50;;;12.30;48.00;;;;;;7427361;19;19910;-82
2024/01/27 06:33:55;;;;;;;;;;;12.30;48.10;;;;;;7431780;19;20259;-82
2024/01/27 06:36:24;;;;;;;8.13;3.25;;;12.30;48.50;;;;;;7381896;19;19937;-82
2024/01/27 06:38:51;;;;;;;8.77;3.53;;;12.20;48.90;;;;;;7430968;19;19922;-82
2024/01/27 06:41:17;;;;;;;11.38;3.33;;;12.30;49.00;;;;;;7431677;19;19915;-82
2024/01/27 06:43:42;;;;;;;11.05;3.88;;;12.20;49.10;;;;;;7409097;19;19918;-83
2024/01/27 06:46:09;;;;;;;9.68;4.13;;;12.20;49.70;;;;;;7427169;19;19930;-82
2024/01/27 06:48:35;;;;;;;7.30;2.92;;;12.20;50.10;;;;;;7427790;19;19978;-83
2024/01/27 06:51:01;;;;;;;8.73;3.63;;;12.20;49.70;;;;;;7428591;19;19918;-81
2024/01/27 06:53:27;;;;;;;9.50;3.58;;;12.20;49.60;;;;;;7428777;19;19951;-82
2024/01/27 06:55:53;;;;;;;8.65;3.60;;;12.10;50.20;;;;;;7429631;19;19907;-81
2024/01/27 06:58:19;;;;;;;7.57;3.42;;;12.10;50.30;;;;;;7429404;19;19926;-82
2024/01/27 07:00:45;;;;;;;7.93;3.03;;;12.10;50.80;;;;;;7431305;19;19923;-83
2024/01/27 07:03:11;;;;;;;9.38;3.58;;;12.10;51.10;;;;;;7428095;19;19915;-83
2024/01/27 07:05:40;;;;;;;11.90;3.80;;;12.10;51.50;;;;;;7429919;19;19926;-83
2024/01/27 07:08:07;;;;;;;9.77;3.38;;;12.10;51.60;;;;;;7429231;19;20398;-83
2024/01/27 07:10:34;;;;;;;8.05;2.90;;;12.20;51.60;;;;;;7429453;19;19935;-83
2024/01/27 07:13:00;;;;;;;10.27;3.33;;;12.20;51.10;;;;;;7431177;19;19928;-82
2024/01/27 07:15:27;;;;;;;9.25;3.38;;;12.20;50.80;;;;;;7430214;19;19930;-83
2024/01/27 07:17:54;;;;;;;9.25;3.75;;;12.20;51.00;;;;;;7431795;19;19969;-81
2024/01/27 07:20:24;;;;;;;9.98;3.40;;;12.20;51.30;;;;;;7428418;19;19938;-83
2024/01/27 07:22:50;;;;;;;7.95;2.65;;;12.20;51.50;;;;;;7430801;19;19938;-82
2024/01/27 07:25:16;;;;;;;8.85;3.10;;;12.20;51.80;;;;;;7427214;19;20426;-83
2024/01/27 07:27:42;;;;;;;11.23;3.13;;;12.20;51.50;;;;;;7429479;19;19931;-81
2024/01/27 07:30:11;;;;;;;8.52;2.72;;;12.20;51.30;;;;;;7427387;19;19926;-81
2024/01/27 07:32:37;;;;;;;8.52;3.13;;;12.30;50.40;;;;;;7428717;19;19915;-84
2024/01/27 07:35:05;;;;;;;8.77;3.28;;;12.40;50.50;;;;;;7427654;19;19931;-84
2024/01/27 07:37:31;;;;;;;7.82;3.10;;;12.50;49.70;;;;;;7428917;19;19979;-82
2024/01/27 07:39:57;;;;;;;8.27;3.40;;;12.60;49.40;;;;;;7428911;19;19910;-83
2024/01/27 07:42:23;;;;;;;11.30;3.35;;;12.70;48.60;;;;;;7426436;19;19983;-84
2024/01/27 07:44:49;;;;;;;12.05;3.95;;;12.90;47.10;;;;;;7428632;19;19934;-82
2024/01/27 07:47:15;;;;;;;7.43;3.80;;;13.00;46.10;;;;;;7425378;19;19915;-82
2024/01/27 07:49:41;;;;;;;7.85;3.13;;;13.00;45.60;;;;;;7427619;19;19919;-82
2024/01/27 07:52:07;;;;;;;9.05;3.75;;;13.10;45.50;;;;;;7427241;19;19918;-83
2024/01/27 07:54:38;;;;;;;13.27;3.72;;;13.20;45.10;;;;;;7405289;19;19949;-82
2024/01/27 07:57:04;;;;;;;9.02;3.42;;;13.20;44.60;;;;;;7426855;19;19936;-81
2024/01/27 07:59:30;;;;;;;8.77;3.53;;;13.30;44.20;;;;;;7426974;19;19933;-82
2024/01/27 08:01:56;;;;;;;10.73;3.47;;;13.30;43.70;;;;;;7421615;19;19918;-84
2024/01/27 08:04:22;;;;;;;8.30;3.40;;;13.40;43.30;;;;;;7423403;19;19943;-83
2024/01/27 08:06:50;;;;;;;11.68;3.90;;;13.40;42.50;;;;;;7427303;19;19915;-84
2024/01/27 08:09:16;;;;;;;12.20;3.80;;;13.50;41.80;;;;;;7424510;19;19936;-83
2024/01/27 08:11:43;;;;;;;9.60;3.67;;;13.60;41.50;;;;;;7426206;19;19917;-83
2024/01/27 08:14:10;;;;;;;10.82;4.18;;;13.70;41.00;;;;;;7425915;19;19919;-82
2024/01/27 08:16:36;;;;;;;15.25;4.10;;;13.80;40.60;;;;;;7427272;19;19943;-82
2024/01/27 08:19:02;;;;;;;13.90;4.50;;;13.90;40.20;;;;;;7427112;19;20347;-83
2024/01/27 08:21:28;;;;;;;12.10;3.75;;;13.90;39.80;;;;;;7427062;19;19918;-82
2024/01/27 08:23:54;;;;;;;8.95;4.05;;;14.00;39.20;;;;;;7424743;19;19966;-83
2024/01/27 08:26:20;;;;;;;10.30;4.15;;;14.20;38.30;;;;;;7424591;19;20485;-82
2024/01/27 08:28:47;;;;;;;14.00;3.55;;;14.30;37.70;;;;;;7421878;19;19938;-83
2024/01/27 08:31:13;;;;;;;8.88;3.53;;;14.40;37.40;;;;;;7423788;19;19922;-81
2024/01/27 08:33:39;;;;;;;11.25;4.07;;;14.60;36.70;;;;;;7427276;19;19914;-83
2024/01/27 08:36:05;;;;;;;12.10;4.22;;;16.20;32.70;;;;;;7419464;19;19918;-83
2024/01/27 08:38:30;;;;;;;8.40;3.58;;;17.80;26.60;;;;;;7425203;19;20343;-84
2024/01/27 08:40:56;;;;;;;10.32;4.00;;;18.80;21.10;;;;;;7427247;19;19910;-83
2024/01/27 08:43:22;;;;;;;10.20;5.28;;;19.40;18.90;;;;;;7423952;19;19934;-83
2024/01/27 08:45:48;;;;;;;8.48;4.25;;;20.00;17.20;;;;;;7404229;19;19915;-83
2024/01/27 08:48:16;;;;;;;9.55;3.95;;;20.20;15.20;;;;;;7402211;19;19931;-83
2024/01/27 08:50:43;;;;;;;9.63;4.72;;;21.10;13.40;;;;;;7426428;19;19939;-83
2024/01/27 08:53:09;;;;;;;11.70;4.88;;;21.80;10.70;;;;;;7424198;19;19914;-82
2024/01/27 08:55:35;;;;;;;7.82;3.92;;;21.70;9.90;;;;;;7426448;19;19922;-82
2024/01/27 08:58:01;;;;;;;12.90;4.55;;;22.10;9.60;;;;;;7423382;19;19910;-84
2024/01/27 09:00:27;;;;;;;10.63;4.40;;;22.50;8.20;;;;;;7425866;19;19915;-83
2024/01/27 09:02:53;;;;;;;11.13;4.95;;;22.40;7.60;;;;;;7426875;19;19946;-84
2024/01/27 09:05:19;;;;;;;9.98;5.07;;;22.30;6.50;;;;;;7425704;19;19919;-84
2024/01/27 09:07:44;;;;;;;10.23;5.32;;;22.00;7.40;;;;;;7424675;19;19911;-82
2024/01/27 09:10:13;;;;;;;11.63;5.65;;;22.10;7.10;;;;;;7423447;19;19993;-83
2024/01/27 09:12:40;;;;;;;9.75;5.50;;;22.00;6.70;;;;;;7368823;19;19926;-83
2024/01/27 09:15:07;;;;;;;12.25;6.03;;;21.50;7.20;;;;;;7422639;19;19938;-82
2024/01/27 09:17:33;;;;;;;14.23;6.22;;;20.80;8.30;;;;;;7427497;19;19910;-84
2024/01/27 09:19:59;;;;;;;12.98;6.07;;;20.40;10.10;;;;;;7423944;19;19918;-82
2024/01/27 09:22:25;;;;;;;12.65;7.22;;;20.00;10.60;;;;;;7423694;19;19974;-84
2024/01/27 09:24:52;;;;;;;13.65;8.15;;;19.70;12.10;;;;;;7402933;19;19942;-82
2024/01/27 09:27:18;;;;;;;12.27;7.78;;;19.40;12.90;;;;;;7421341;19;19922;-82
2024/01/27 09:29:44;;;;;;;12.63;7.10;;;19.10;13.90;;;;;;7428450;19;19911;-82
2024/01/27 09:32:10;;;;;;;10.27;5.65;;;19.00;14.30;;;;;;7400192;19;19934;-83
2024/01/27 09:34:40;;;;;;;10.80;5.97;;;18.90;14.40;;;;;;7425277;19;19931;-82
2024/01/27 09:37:06;;;;;;;8.23;5.57;;;18.90;14.50;;;;;;7424563;19;19911;-84
2024/01/27 09:39:33;;;;;;;13.25;5.93;;;18.90;14.00;;;;;;7425429;19;19938;-83
2024/01/27 09:42:05;;;;;;;11.27;5.22;;;19.00;13.60;;;;;;7427631;19;19910;-83
2024/01/27 09:44:32;;;;;;;10.85;5.63;;;19.00;13.20;;;;;;7425053;19;19918;-83
2024/01/27 09:46:58;;;;;;;12.18;5.57;;;19.10;13.00;;;;;;7407231;19;19946;-84
2024/01/27 09:49:26;;;;;;;12.45;4.88;;;19.20;12.70;;;;;;7421202;19;19918;-85
2024/01/27 09:51:52;;;;;;;9.43;5.05;;;19.60;12.40;;;;;;7428361;19;19923;-82
2024/01/27 09:54:19;;;;;;;8.70;4.88;;;20.00;11.20;;;;;;7422697;19;19935;-83
2024/01/27 09:56:46;;;;;;;11.15;5.60;;;20.50;10.30;;;;;;7427408;19;19926;-83
2024/01/27 09:59:15;;;;;;;10.32;6.15;;;20.80;9.10;;;;;;7428002;19;19923;-83
2024/01/27 10:02:00;;;;;;;11.32;5.90;;;21.10;8.30;;;;;;7422466;19;19950;-81
2024/01/27 10:04:28;;;;;;;9.60;5.45;;;21.20;7.90;;;;;;7426049;19;19918;-84
2024/01/27 10:06:53;;;;;;;11.73;5.65;;;21.40;7.80;;;;;;7426740;19;19959;-83
2024/01/27 10:09:21;;;;;;;10.45;5.80;;;21.70;7.30;;;;;;7425731;19;19915;-83
2024/01/27 10:11:54;;;;;;;10.02;5.60;;;21.90;6.90;;;;;;7426285;19;19927;-83
2024/01/27 10:14:20;;;;;;;12.88;6.88;;;22.00;6.10;;;;;;7421485;19;19954;-83
2024/01/27 10:16:46;;;;;;;10.98;6.43;;;21.90;6.30;;;;;;7427521;19;19914;-83
2024/01/27 10:19:17;;;;;;;12.10;6.53;;;22.00;6.00;;;;;;7418300;19;19919;-84
2024/01/27 10:24:49;;;;;;;12.77;7.07;;;22.00;6.30;;;;;;7427394;19;19997;-83
2024/01/27 10:27:14;;;;;;;11.88;7.57;;;22.20;5.60;;;;;;7430103;19;20014;-82
2024/01/27 10:29:40;;;;;;;11.93;8.07;;;22.10;5.80;;;;;;7433667;19;19925;-82
2024/01/27 10:32:11;;;;;;;14.85;9.65;;;22.20;6.30;;;;;;7430061;19;19962;-81
2024/01/27 10:34:38;;;;;;;16.20;8.93;;;22.20;6.50;;;;;;7432933;19;19926;-82
2024/01/27 10:37:04;;;;;;;19.23;11.35;;;22.20;7.00;;;;;;7431323;19;19938;-82
2024/01/27 10:39:30;;;;;;;15.35;11.38;;;22.20;7.00;;;;;;7411243;19;19914;-82
2024/01/27 10:42:03;;;;;;;17.27;12.48;;;22.30;6.90;;;;;;7431525;19;19970;-82
2024/01/27 10:44:29;;;;;;;18.75;13.73;;;22.30;7.10;;;;;;7373374;19;19997;-82
2024/01/27 10:46:59;;;;;;;18.92;14.27;;;22.30;7.20;;;;;;7432377;19;19919;-83
2024/01/27 10:49:32;;;;;;;19.88;13.43;;;22.40;7.20;;;;;;7430780;19;19947;-81
2024/01/27 10:52:01;;;;;;;18.75;14.15;;;22.40;7.30;;;;;;7425172;19;19914;-81
2024/01/27 10:54:32;;;;;;;17.67;12.35;;;22.30;7.40;;;;;;7426629;19;19913;-82
2024/01/27 10:56:58;;;;;;;18.33;13.60;;;22.30;7.70;;;;;;7430074;19;20321;-82
2024/01/27 10:59:26;;;;;;;20.58;13.73;;;22.60;7.40;;;;;;7427471;19;19915;-82
2024/01/27 11:01:53;;;;;;;19.75;14.25;;;22.80;6.70;;;;;;7428997;19;19918;-82
2024/01/27 11:04:22;;;;;;;20.98;15.05;;;23.00;6.50;;;;;;7428468;19;19915;-84
2024/01/27 11:06:50;;;;;;;19.75;14.82;;;23.00;6.50;;;;;;7430815;19;19914;-82
2024/01/27 11:09:17;;;;;;;19.73;14.85;;;23.20;6.20;;;;;;7426175;19;19907;-82
2024/01/27 11:11:47;;;;;;;19.25;14.38;;;23.50;5.80;;;;;;7430087;19;19934;-81
2024/01/27 11:14:13;;;;;;;20.02;14.55;;;23.50;5.60;;;;;;7427613;19;19911;-82
2024/01/27 11:16:43;;;;;;;17.13;13.93;;;23.30;5.90;;;;;;7428618;19;19915;-82
2024/01/27 11:19:11;;;;;;;17.60;13.35;;;23.60;5.70;;;;;;7428601;19;19910;-83
2024/01/27 11:21:38;;;;;;;18.17;13.85;;;23.60;5.50;;;;;;7432165;19;19911;-81
2024/01/27 11:24:24;;;;;;;18.67;12.75;;;23.80;5.00;;;;;;7425722;19;19918;-82
2024/01/27 11:27:01;;;;;;;19.45;12.43;;;23.90;4.10;;;;;;7429885;19;19924;-81
2024/01/27 11:29:27;;;;;;;14.18;9.52;;;24.10;3.40;;;;;;7425625;19;20346;-81
2024/01/27 11:31:55;;;;;;;14.02;9.55;;;24.20;2.80;;;;;;7428047;19;19919;-81
2024/01/27 11:34:21;;;;;;;12.75;8.55;;;24.30;2.40;;;;;;7424694;19;19959;-79
2024/01/27 11:36:47;;;;;;;13.05;8.00;;;24.50;1.50;;;;;;7426497;19;19922;-82
2024/01/27 11:39:27;;;;;;;10.48;7.45;;;24.50;1.70;;;;;;7422614;19;19907;-81
2024/01/27 11:42:14;;;;;;;12.50;9.25;;;24.60;1.00;;;;;;7429504;19;19925;-80
2024/01/27 11:44:41;;;;;;;13.85;8.85;;;24.40;1.30;;;;;;7425253;19;19942;-81
2024/01/27 11:47:18;;;;;;;13.25;7.88;;;24.70;1.70;;;;;;7424205;19;19918;-81
2024/01/27 11:49:55;;;;;;;12.02;7.63;;;25.10;1.00;;;;;;7429956;19;19907;-81
2024/01/27 11:52:21;;;;;;;16.23;8.70;;;25.30;1.00;;;;;;7407302;19;19911;-81
2024/01/27 11:55:00;;;;;;;14.52;8.63;;;25.70;1.00;;;;;;7430572;19;19927;-80
2024/01/27 11:57:26;;;;;;;15.00;9.18;;;25.50;1.00;;;;;;7427643;19;19915;-80
2024/01/27 11:59:53;;;;;;;16.00;9.48;;;25.70;1.00;;;;;;7428285;19;19929;-81
2024/01/27 12:02:23;;;;;;;13.15;9.68;;;25.80;1.00;;;;;;7426802;19;19914;-81
2024/01/27 12:04:49;;;;;;;16.08;9.85;;;26.00;1.00;;;;;;7427752;19;19923;-82
2024/01/27 12:07:18;;;;;;;13.43;9.23;;;26.00;1.00;;;;;;7426777;19;19921;-82
2024/01/27 12:09:45;;;;;;;12.05;8.88;;;26.20;1.00;;;;;;7428629;19;19915;-81
2024/01/27 12:12:14;;;;;;;16.20;7.95;;;26.40;1.00;;;;;;7429759;19;19986;-82
2024/01/27 12:14:41;;;;;;;13.75;8.07;;;26.50;1.00;;;;;;7430558;19;19911;-81
2024/01/27 12:17:10;;;;;;;10.40;7.50;;;26.60;1.00;;;;;;7426905;19;19949;-80
2024/01/27 12:19:36;;;;;;;11.82;7.13;;;26.40;1.00;;;;;;7431420;19;19925;-80
2024/01/27 12:22:02;;;;;;;;;;;27.00;1.00;;;;;;7431959;19;19932;-81
2024/01/27 12:24:28;;;;;;;8.32;5.68;;;27.50;1.00;;;;;;7385648;19;20287;-82
2024/01/27 12:26:57;;;;;;;13.23;6.40;;;27.30;1.00;;;;;;7427246;19;19915;-81
2024/01/27 12:29:23;;;;;;;8.32;4.93;;;27.50;1.00;;;;;;7426564;19;19982;-81
2024/01/27 12:31:49;;;;;;;;;;;27.40;1.00;;;;;;7431263;19;19929;-81
2024/01/27 12:34:14;;;;;;;8.80;6.03;;;27.60;1.00;;;;;;7425514;19;19927;-81
2024/01/27 12:36:42;;;;;;;10.57;5.82;;;27.60;1.00;;;;;;7425226;19;19915;-82
2024/01/27 12:39:08;;;;;;;10.60;5.95;;;27.90;1.00;;;;;;7424430;19;19918;-82
2024/01/27 12:41:39;;;;;;;10.27;6.25;;;28.50;1.00;;;;;;7427848;19;19919;-81
2024/01/27 12:44:07;;;;;;;9.40;5.82;;;28.80;1.00;;;;;;7424220;19;19926;-81
2024/01/27 12:46:32;;;;;;;8.57;4.97;;;28.50;1.00;;;;;;7427254;19;20463;-82
2024/01/27 12:48:58;;;;;;;;;;;28.40;1.00;;;;;;7425168;19;19922;-82
2024/01/27 12:51:24;;;;;;;9.13;6.07;;;28.40;1.00;;;;;;7425494;19;20742;-82